sensor_id;sensor_type;location;lat;lon;timestamp;temperature;humidity
10171;DHT22;5127;50.922;6.988;2022-12-18T00:02:15;-2.00;62.30
10171;DHT22;5127;50.922;6.988;2022-12-18T00:04:44;-2.00;62.30
10171;DHT22;5127;50.922;6.988;2022-12-18T00:07:12;-2.00;62.20
10171;DHT22;5127;50.922;6.988;2022-12-18T00:09:39;-2.00;62.30
10171;DHT22;5127;50.922;6.988;2022-12-18T00:12:07;-2.00;62.30
10171;DHT22;5127;50.922;6.988;2022-12-18T00:14:34;-2.00;62.30
10171;DHT22;5127;50.922;6.988;2022-12-18T00:17:02;-2.00;62.20
10171;DHT22;5127;50.922;6.988;2022-12-18T00:19:30;-2.10;62.20
10171;DHT22;5127;50.922;6.988;2022-12-18T00:21:58;-2.10;62.10
10171;DHT22;5127;50.922;6.988;2022-12-18T00:24:25;-2.10;62.20
10171;DHT22;5127;50.922;6.988;2022-12-18T00:26:53;-2.10;62.10
10171;DHT22;5127;50.922;6.988;2022-12-18T00:29:20;-2.10;62.10
10171;DHT22;5127;50.922;6.988;2022-12-18T00:31:47;-2.10;62.10
10171;DHT22;5127;50.922;6.988;2022-12-18T00:34:15;-2.10;62.10
10171;DHT22;5127;50.922;6.988;2022-12-18T00:36:42;-2.10;62.10
10171;DHT22;5127;50.922;6.988;2022-12-18T00:39:11;-2.10;62.20
10171;DHT22;5127;50.922;6.988;2022-12-18T00:41:38;-2.10;62.10
10171;DHT22;5127;50.922;6.988;2022-12-18T00:44:25;-2.20;62.00
10171;DHT22;5127;50.922;6.988;2022-12-18T00:46:52;-2.20;62.00
10171;DHT22;5127;50.922;6.988;2022-12-18T00:49:20;-2.20;62.00
10171;DHT22;5127;50.922;6.988;2022-12-18T00:51:47;-2.20;62.00
10171;DHT22;5127;50.922;6.988;2022-12-18T00:54:16;-2.20;62.00
10171;DHT22;5127;50.922;6.988;2022-12-18T00:56:44;-2.20;62.00
10171;DHT22;5127;50.922;6.988;2022-12-18T00:59:12;-2.20;62.00
10171;DHT22;5127;50.922;6.988;2022-12-18T01:01:39;-2.30;61.90
10171;DHT22;5127;50.922;6.988;2022-12-18T01:04:06;-2.30;61.90
10171;DHT22;5127;50.922;6.988;2022-12-18T01:06:34;-2.30;61.90
10171;DHT22;5127;50.922;6.988;2022-12-18T01:09:01;-2.30;61.90
10171;DHT22;5127;50.922;6.988;2022-12-18T01:11:30;-2.30;62.00
10171;DHT22;5127;50.922;6.988;2022-12-18T01:13:57;-2.30;62.00
10171;DHT22;5127;50.922;6.988;2022-12-18T01:16:25;-2.30;62.00
10171;DHT22;5127;50.922;6.988;2022-12-18T01:18:53;-2.30;62.00
10171;DHT22;5127;50.922;6.988;2022-12-18T01:21:22;-2.30;62.00
10171;DHT22;5127;50.922;6.988;2022-12-18T01:23:52;-2.30;62.00
10171;DHT22;5127;50.922;6.988;2022-12-18T01:26:20;-2.30;61.90
10171;DHT22;5127;50.922;6.988;2022-12-18T01:28:48;-2.30;62.00
10171;DHT22;5127;50.922;6.988;2022-12-18T01:31:18;-2.40;61.90
10171;DHT22;5127;50.922;6.988;2022-12-18T01:33:46;-2.40;61.90
10171;DHT22;5127;50.922;6.988;2022-12-18T01:36:18;-2.40;61.90
10171;DHT22;5127;50.922;6.988;2022-12-18T01:38:46;-2.40;61.90
10171;DHT22;5127;50.922;6.988;2022-12-18T01:41:15;-2.40;62.00
10171;DHT22;5127;50.922;6.988;2022-12-18T01:43:45;-2.40;62.00
10171;DHT22;5127;50.922;6.988;2022-12-18T01:46:15;-2.40;62.00
10171;DHT22;5127;50.922;6.988;2022-12-18T01:48:44;-2.40;62.00
10171;DHT22;5127;50.922;6.988;2022-12-18T01:51:13;-2.40;62.00
10171;DHT22;5127;50.922;6.988;2022-12-18T01:53:42;-2.40;62.00
10171;DHT22;5127;50.922;6.988;2022-12-18T01:56:13;-2.40;62.00
10171;DHT22;5127;50.922;6.988;2022-12-18T01:58:48;-2.40;62.00
10171;DHT22;5127;50.922;6.988;2022-12-18T02:01:20;-2.40;62.00
10171;DHT22;5127;50.922;6.988;2022-12-18T02:03:48;-2.40;62.00
10171;DHT22;5127;50.922;6.988;2022-12-18T02:06:19;-2.40;62.00
10171;DHT22;5127;50.922;6.988;2022-12-18T02:09:02;-2.40;62.00
10171;DHT22;5127;50.922;6.988;2022-12-18T02:11:39;-2.40;61.90
10171;DHT22;5127;50.922;6.988;2022-12-18T02:14:17;-2.40;62.00
10171;DHT22;5127;50.922;6.988;2022-12-18T02:16:52;-2.40;62.00
10171;DHT22;5127;50.922;6.988;2022-12-18T02:19:43;-2.40;62.00
10171;DHT22;5127;50.922;6.988;2022-12-18T02:22:21;-2.40;61.90
10171;DHT22;5127;50.922;6.988;2022-12-18T02:24:59;-2.40;62.00
10171;DHT22;5127;50.922;6.988;2022-12-18T02:27:30;-2.40;62.10
10171;DHT22;5127;50.922;6.988;2022-12-18T02:29:59;-2.40;62.10
10171;DHT22;5127;50.922;6.988;2022-12-18T02:32:31;-2.40;62.10
10171;DHT22;5127;50.922;6.988;2022-12-18T02:35:03;-2.40;62.00
10171;DHT22;5127;50.922;6.988;2022-12-18T02:37:34;-2.40;62.00
10171;DHT22;5127;50.922;6.988;2022-12-18T02:40:06;-2.40;62.00
10171;DHT22;5127;50.922;6.988;2022-12-18T02:42:38;-2.40;62.00
10171;DHT22;5127;50.922;6.988;2022-12-18T02:45:07;-2.40;61.90
10171;DHT22;5127;50.922;6.988;2022-12-18T02:47:38;-2.40;61.80
10171;DHT22;5127;50.922;6.988;2022-12-18T02:50:12;-2.40;61.80
10171;DHT22;5127;50.922;6.988;2022-12-18T02:52:53;-2.40;61.70
10171;DHT22;5127;50.922;6.988;2022-12-18T02:55:30;-2.40;61.70
10171;DHT22;5127;50.922;6.988;2022-12-18T02:58:13;-2.40;61.80
10171;DHT22;5127;50.922;6.988;2022-12-18T03:00:46;-2.40;61.80
10171;DHT22;5127;50.922;6.988;2022-12-18T03:03:19;-2.40;61.90
10171;DHT22;5127;50.922;6.988;2022-12-18T03:05:51;-2.40;61.90
10171;DHT22;5127;50.922;6.988;2022-12-18T03:08:22;-2.50;61.80
10171;DHT22;5127;50.922;6.988;2022-12-18T03:10:53;-2.50;61.80
10171;DHT22;5127;50.922;6.988;2022-12-18T03:13:26;-2.50;61.90
10171;DHT22;5127;50.922;6.988;2022-12-18T03:15:55;-2.50;61.80
10171;DHT22;5127;50.922;6.988;2022-12-18T03:18:25;-2.50;61.90
10171;DHT22;5127;50.922;6.988;2022-12-18T03:20:59;-2.50;61.90
10171;DHT22;5127;50.922;6.988;2022-12-18T03:23:33;-2.40;62.00
10171;DHT22;5127;50.922;6.988;2022-12-18T03:26:05;-2.40;62.00
10171;DHT22;5127;50.922;6.988;2022-12-18T03:28:39;-2.40;62.00
10171;DHT22;5127;50.922;6.988;2022-12-18T03:31:10;-2.40;62.10
10171;DHT22;5127;50.922;6.988;2022-12-18T03:33:42;-2.40;62.00
10171;DHT22;5127;50.922;6.988;2022-12-18T03:36:11;-2.40;62.00
10171;DHT22;5127;50.922;6.988;2022-12-18T03:38:39;-2.40;62.00
10171;DHT22;5127;50.922;6.988;2022-12-18T03:41:15;-2.40;62.00
10171;DHT22;5127;50.922;6.988;2022-12-18T03:44:10;-2.40;62.00
10171;DHT22;5127;50.922;6.988;2022-12-18T03:46:47;-2.40;62.00
10171;DHT22;5127;50.922;6.988;2022-12-18T03:49:21;-2.40;62.00
10171;DHT22;5127;50.922;6.988;2022-12-18T03:51:53;-2.40;62.20
10171;DHT22;5127;50.922;6.988;2022-12-18T03:54:22;-2.30;62.30
10171;DHT22;5127;50.922;6.988;2022-12-18T03:57:00;-2.30;62.30
10171;DHT22;5127;50.922;6.988;2022-12-18T03:59:31;-2.30;62.20
10171;DHT22;5127;50.922;6.988;2022-12-18T04:02:01;-2.30;62.20
10171;DHT22;5127;50.922;6.988;2022-12-18T04:04:31;-2.30;62.10
10171;DHT22;5127;50.922;6.988;2022-12-18T04:07:02;-2.30;62.10
10171;DHT22;5127;50.922;6.988;2022-12-18T04:09:30;-2.30;62.00
10171;DHT22;5127;50.922;6.988;2022-12-18T04:11:59;-2.30;62.00
10171;DHT22;5127;50.922;6.988;2022-12-18T04:14:26;-2.20;62.00
10171;DHT22;5127;50.922;6.988;2022-12-18T04:16:57;-2.30;61.90
10171;DHT22;5127;50.922;6.988;2022-12-18T04:19:30;-2.20;62.00
10171;DHT22;5127;50.922;6.988;2022-12-18T04:21:58;-2.20;62.00
10171;DHT22;5127;50.922;6.988;2022-12-18T04:24:26;-2.20;61.90
10171;DHT22;5127;50.922;6.988;2022-12-18T04:27:04;-2.20;62.60
10171;DHT22;5127;50.922;6.988;2022-12-18T04:29:36;-2.20;61.90
10171;DHT22;5127;50.922;6.988;2022-12-18T04:32:04;-2.20;62.00
10171;DHT22;5127;50.922;6.988;2022-12-18T04:34:33;-2.20;61.90
10171;DHT22;5127;50.922;6.988;2022-12-18T04:37:00;-2.20;61.90
10171;DHT22;5127;50.922;6.988;2022-12-18T04:39:27;-2.20;61.90
10171;DHT22;5127;50.922;6.988;2022-12-18T04:41:59;-2.20;61.80
10171;DHT22;5127;50.922;6.988;2022-12-18T04:44:26;-2.20;61.80
10171;DHT22;5127;50.922;6.988;2022-12-18T04:46:53;-2.20;61.80
10171;DHT22;5127;50.922;6.988;2022-12-18T04:49:23;-2.20;61.80
10171;DHT22;5127;50.922;6.988;2022-12-18T04:51:50;-2.20;61.90
10171;DHT22;5127;50.922;6.988;2022-12-18T04:54:18;-2.20;61.80
10171;DHT22;5127;50.922;6.988;2022-12-18T04:56:46;-2.20;61.80
10171;DHT22;5127;50.922;6.988;2022-12-18T04:59:13;-2.20;61.80
10171;DHT22;5127;50.922;6.988;2022-12-18T05:01:40;-2.20;61.70
10171;DHT22;5127;50.922;6.988;2022-12-18T05:04:08;-2.20;61.70
10171;DHT22;5127;50.922;6.988;2022-12-18T05:06:37;-2.20;61.80
10171;DHT22;5127;50.922;6.988;2022-12-18T05:09:04;-2.20;61.70
10171;DHT22;5127;50.922;6.988;2022-12-18T05:11:31;-2.20;61.70
10171;DHT22;5127;50.922;6.988;2022-12-18T05:13:58;-2.20;61.70
10171;DHT22;5127;50.922;6.988;2022-12-18T05:16:25;-2.20;61.70
10171;DHT22;5127;50.922;6.988;2022-12-18T05:18:53;-2.20;61.70
10171;DHT22;5127;50.922;6.988;2022-12-18T05:21:20;-2.20;61.70
10171;DHT22;5127;50.922;6.988;2022-12-18T05:23:48;-2.20;61.70
10171;DHT22;5127;50.922;6.988;2022-12-18T05:26:17;-2.20;61.70
10171;DHT22;5127;50.922;6.988;2022-12-18T05:28:44;-2.20;61.70
10171;DHT22;5127;50.922;6.988;2022-12-18T05:31:12;-2.20;61.70
10171;DHT22;5127;50.922;6.988;2022-12-18T05:33:40;-2.20;61.70
10171;DHT22;5127;50.922;6.988;2022-12-18T05:36:09;-2.20;61.70
10171;DHT22;5127;50.922;6.988;2022-12-18T05:38:38;-2.20;61.70
10171;DHT22;5127;50.922;6.988;2022-12-18T05:41:08;-2.20;61.60
10171;DHT22;5127;50.922;6.988;2022-12-18T05:43:36;-2.20;61.60
10171;DHT22;5127;50.922;6.988;2022-12-18T05:46:05;-2.20;61.70
10171;DHT22;5127;50.922;6.988;2022-12-18T05:48:33;-2.20;61.70
10171;DHT22;5127;50.922;6.988;2022-12-18T05:51:05;-2.20;61.70
10171;DHT22;5127;50.922;6.988;2022-12-18T05:53:33;-2.20;61.70
10171;DHT22;5127;50.922;6.988;2022-12-18T05:56:01;-2.20;61.70
10171;DHT22;5127;50.922;6.988;2022-12-18T05:58:30;-2.20;61.90
10171;DHT22;5127;50.922;6.988;2022-12-18T06:01:05;-2.20;61.80
10171;DHT22;5127;50.922;6.988;2022-12-18T06:03:32;-2.20;61.90
10171;DHT22;5127;50.922;6.988;2022-12-18T06:06:00;-2.20;61.90
10171;DHT22;5127;50.922;6.988;2022-12-18T06:08:27;-2.20;61.90
10171;DHT22;5127;50.922;6.988;2022-12-18T06:10:55;-2.20;61.90
10171;DHT22;5127;50.922;6.988;2022-12-18T06:13:22;-2.20;61.90
10171;DHT22;5127;50.922;6.988;2022-12-18T06:15:51;-2.20;61.90
10171;DHT22;5127;50.922;6.988;2022-12-18T06:18:18;-2.20;61.90
10171;DHT22;5127;50.922;6.988;2022-12-18T06:20:53;-2.20;61.90
10171;DHT22;5127;50.922;6.988;2022-12-18T06:23:20;-2.10;62.00
10171;DHT22;5127;50.922;6.988;2022-12-18T06:25:48;-2.20;61.80
10171;DHT22;5127;50.922;6.988;2022-12-18T06:28:15;-2.20;61.90
10171;DHT22;5127;50.922;6.988;2022-12-18T06:30:43;-2.20;61.80
10171;DHT22;5127;50.922;6.988;2022-12-18T06:33:12;-2.20;61.70
10171;DHT22;5127;50.922;6.988;2022-12-18T06:35:39;-2.20;61.70
10171;DHT22;5127;50.922;6.988;2022-12-18T06:38:07;-2.20;61.80
10171;DHT22;5127;50.922;6.988;2022-12-18T06:40:37;-2.20;61.70
10171;DHT22;5127;50.922;6.988;2022-12-18T06:43:05;-2.20;61.70
10171;DHT22;5127;50.922;6.988;2022-12-18T06:45:32;-2.20;61.70
10171;DHT22;5127;50.922;6.988;2022-12-18T06:47:59;-2.20;61.70
10171;DHT22;5127;50.922;6.988;2022-12-18T06:50:28;-2.20;61.70
10171;DHT22;5127;50.922;6.988;2022-12-18T06:52:56;-2.20;61.70
10171;DHT22;5127;50.922;6.988;2022-12-18T06:55:23;-2.20;61.70
10171;DHT22;5127;50.922;6.988;2022-12-18T06:57:50;-2.20;61.70
10171;DHT22;5127;50.922;6.988;2022-12-18T07:00:18;-2.20;61.70
10171;DHT22;5127;50.922;6.988;2022-12-18T07:02:45;-2.20;61.60
10171;DHT22;5127;50.922;6.988;2022-12-18T07:05:13;-2.20;61.60
10171;DHT22;5127;50.922;6.988;2022-12-18T07:07:41;-2.30;61.50
10171;DHT22;5127;50.922;6.988;2022-12-18T07:10:09;-2.30;61.40
10171;DHT22;5127;50.922;6.988;2022-12-18T07:12:36;-2.30;61.40
10171;DHT22;5127;50.922;6.988;2022-12-18T07:15:05;-2.30;61.40
10171;DHT22;5127;50.922;6.988;2022-12-18T07:17:32;-2.40;61.20
10171;DHT22;5127;50.922;6.988;2022-12-18T07:19:59;-2.30;61.30
10171;DHT22;5127;50.922;6.988;2022-12-18T07:22:27;-2.40;61.20
10171;DHT22;5127;50.922;6.988;2022-12-18T07:24:56;-2.40;61.20
10171;DHT22;5127;50.922;6.988;2022-12-18T07:27:23;-2.50;61.00
10171;DHT22;5127;50.922;6.988;2022-12-18T07:29:50;-2.50;61.00
10171;DHT22;5127;50.922;6.988;2022-12-18T07:32:17;-2.50;61.00
10171;DHT22;5127;50.922;6.988;2022-12-18T07:34:45;-2.60;60.90
10171;DHT22;5127;50.922;6.988;2022-12-18T07:37:12;-2.60;61.00
10171;DHT22;5127;50.922;6.988;2022-12-18T07:39:39;-2.60;61.00
10171;DHT22;5127;50.922;6.988;2022-12-18T07:42:08;-2.70;61.00
10171;DHT22;5127;50.922;6.988;2022-12-18T07:45:02;-2.70;61.00
10171;DHT22;5127;50.922;6.988;2022-12-18T07:47:29;-2.70;61.10
10171;DHT22;5127;50.922;6.988;2022-12-18T07:49:57;-2.70;61.20
10171;DHT22;5127;50.922;6.988;2022-12-18T07:52:24;-2.70;61.20
10171;DHT22;5127;50.922;6.988;2022-12-18T07:54:51;-2.80;61.30
10171;DHT22;5127;50.922;6.988;2022-12-18T07:57:20;-2.70;61.50
10171;DHT22;5127;50.922;6.988;2022-12-18T07:59:47;-2.70;61.60
10171;DHT22;5127;50.922;6.988;2022-12-18T08:02:14;-2.70;61.70
10171;DHT22;5127;50.922;6.988;2022-12-18T08:04:42;-2.70;61.60
10171;DHT22;5127;50.922;6.988;2022-12-18T08:07:09;-2.60;61.70
10171;DHT22;5127;50.922;6.988;2022-12-18T08:09:37;-2.60;61.60
10171;DHT22;5127;50.922;6.988;2022-12-18T08:12:05;-2.60;61.70
10171;DHT22;5127;50.922;6.988;2022-12-18T08:14:33;-2.60;61.70
10171;DHT22;5127;50.922;6.988;2022-12-18T08:17:01;-2.60;61.80
10171;DHT22;5127;50.922;6.988;2022-12-18T08:19:28;-2.50;62.00
10171;DHT22;5127;50.922;6.988;2022-12-18T08:21:55;-2.50;62.10
10171;DHT22;5127;50.922;6.988;2022-12-18T08:24:23;-2.50;62.20
10171;DHT22;5127;50.922;6.988;2022-12-18T08:26:50;-2.40;63.00
10171;DHT22;5127;50.922;6.988;2022-12-18T08:29:17;-2.40;62.30
10171;DHT22;5127;50.922;6.988;2022-12-18T08:31:46;-2.30;62.40
10171;DHT22;5127;50.922;6.988;2022-12-18T08:34:13;-2.30;62.40
10171;DHT22;5127;50.922;6.988;2022-12-18T08:36:40;-2.30;62.40
10171;DHT22;5127;50.922;6.988;2022-12-18T08:39:08;-2.20;62.50
10171;DHT22;5127;50.922;6.988;2022-12-18T08:41:35;-2.20;62.50
10171;DHT22;5127;50.922;6.988;2022-12-18T08:44:03;-2.10;62.60
10171;DHT22;5127;50.922;6.988;2022-12-18T08:46:49;-2.00;62.70
10171;DHT22;5127;50.922;6.988;2022-12-18T08:49:16;-2.00;62.70
10171;DHT22;5127;50.922;6.988;2022-12-18T08:51:44;-1.90;62.80
10171;DHT22;5127;50.922;6.988;2022-12-18T08:54:12;-1.90;62.90
10171;DHT22;5127;50.922;6.988;2022-12-18T08:56:39;-1.80;63.00
10171;DHT22;5127;50.922;6.988;2022-12-18T08:59:08;-1.70;63.10
10171;DHT22;5127;50.922;6.988;2022-12-18T09:01:35;-1.60;63.20
10171;DHT22;5127;50.922;6.988;2022-12-18T09:04:04;-1.60;63.20
10171;DHT22;5127;50.922;6.988;2022-12-18T09:06:31;-1.50;63.30
10171;DHT22;5127;50.922;6.988;2022-12-18T09:08:58;-1.40;63.50
10171;DHT22;5127;50.922;6.988;2022-12-18T09:11:27;-1.30;63.60
10171;DHT22;5127;50.922;6.988;2022-12-18T09:13:55;-1.20;63.50
10171;DHT22;5127;50.922;6.988;2022-12-18T09:16:24;-1.10;63.50
10171;DHT22;5127;50.922;6.988;2022-12-18T09:18:52;-1.00;63.40
10171;DHT22;5127;50.922;6.988;2022-12-18T09:21:27;-0.90;64.00
10171;DHT22;5127;50.922;6.988;2022-12-18T09:23:55;-0.80;63.30
10171;DHT22;5127;50.922;6.988;2022-12-18T09:26:24;-0.80;63.20
10171;DHT22;5127;50.922;6.988;2022-12-18T09:28:52;-0.70;63.00
10171;DHT22;5127;50.922;6.988;2022-12-18T09:31:21;-0.60;63.20
10171;DHT22;5127;50.922;6.988;2022-12-18T09:33:49;-0.60;63.10
10171;DHT22;5127;50.922;6.988;2022-12-18T09:36:17;-0.50;63.00
10171;DHT22;5127;50.922;6.988;2022-12-18T09:38:46;-0.40;63.00
10171;DHT22;5127;50.922;6.988;2022-12-18T09:41:25;-0.40;62.80
10171;DHT22;5127;50.922;6.988;2022-12-18T09:43:56;-0.30;62.80
10171;DHT22;5127;50.922;6.988;2022-12-18T09:46:29;-0.20;63.00
10171;DHT22;5127;50.922;6.988;2022-12-18T09:48:59;-0.10;63.10
10171;DHT22;5127;50.922;6.988;2022-12-18T09:51:31;-0.10;62.80
10171;DHT22;5127;50.922;6.988;2022-12-18T09:54:03;0.00;62.90
10171;DHT22;5127;50.922;6.988;2022-12-18T09:56:35;0.00;62.80
10171;DHT22;5127;50.922;6.988;2022-12-18T09:59:04;0.10;62.40
10171;DHT22;5127;50.922;6.988;2022-12-18T10:01:32;0.20;62.60
10171;DHT22;5127;50.922;6.988;2022-12-18T10:04:00;0.20;62.40
10171;DHT22;5127;50.922;6.988;2022-12-18T10:06:31;0.30;62.70
10171;DHT22;5127;50.922;6.988;2022-12-18T10:09:09;0.40;62.70
10171;DHT22;5127;50.922;6.988;2022-12-18T10:11:46;0.40;62.30
10171;DHT22;5127;50.922;6.988;2022-12-18T10:14:18;0.50;62.30
10171;DHT22;5127;50.922;6.988;2022-12-18T10:16:57;0.50;62.60
10171;DHT22;5127;50.922;6.988;2022-12-18T10:19:35;0.60;62.30
10171;DHT22;5127;50.922;6.988;2022-12-18T10:22:11;0.70;61.90
10171;DHT22;5127;50.922;6.988;2022-12-18T10:24:48;0.70;62.00
10171;DHT22;5127;50.922;6.988;2022-12-18T10:27:22;0.80;62.20
10171;DHT22;5127;50.922;6.988;2022-12-18T10:29:50;0.80;61.90
10171;DHT22;5127;50.922;6.988;2022-12-18T10:32:19;0.90;62.00
10171;DHT22;5127;50.922;6.988;2022-12-18T10:34:48;0.90;61.80
10171;DHT22;5127;50.922;6.988;2022-12-18T10:37:17;1.00;62.20
10171;DHT22;5127;50.922;6.988;2022-12-18T10:39:47;1.00;62.20
10171;DHT22;5127;50.922;6.988;2022-12-18T10:42:31;1.10;62.10
10171;DHT22;5127;50.922;6.988;2022-12-18T10:45:01;1.10;62.00
10171;DHT22;5127;50.922;6.988;2022-12-18T10:47:29;1.20;62.10
10171;DHT22;5127;50.922;6.988;2022-12-18T10:49:56;1.20;62.40
10171;DHT22;5127;50.922;6.988;2022-12-18T10:52:25;1.30;62.30
10171;DHT22;5127;50.922;6.988;2022-12-18T10:54:56;1.30;62.00
10171;DHT22;5127;50.922;6.988;2022-12-18T10:57:34;1.40;61.50
10171;DHT22;5127;50.922;6.988;2022-12-18T11:00:24;1.40;60.90
10171;DHT22;5127;50.922;6.988;2022-12-18T11:02:51;1.50;60.80
10171;DHT22;5127;50.922;6.988;2022-12-18T11:05:28;1.50;61.20
10171;DHT22;5127;50.922;6.988;2022-12-18T11:07:58;1.60;59.80
10171;DHT22;5127;50.922;6.988;2022-12-18T11:10:29;1.60;60.60
10171;DHT22;5127;50.922;6.988;2022-12-18T11:13:10;1.60;60.70
10171;DHT22;5127;50.922;6.988;2022-12-18T11:15:40;1.70;59.90
10171;DHT22;5127;50.922;6.988;2022-12-18T11:18:16;1.70;60.60
10171;DHT22;5127;50.922;6.988;2022-12-18T11:20:50;1.70;60.10
10171;DHT22;5127;50.922;6.988;2022-12-18T11:23:19;1.70;60.40
10171;DHT22;5127;50.922;6.988;2022-12-18T11:26:01;1.80;61.10
10171;DHT22;5127;50.922;6.988;2022-12-18T11:28:40;1.80;60.10
10171;DHT22;5127;50.922;6.988;2022-12-18T11:31:16;1.80;59.80
10171;DHT22;5127;50.922;6.988;2022-12-18T11:33:46;1.90;60.40
10171;DHT22;5127;50.922;6.988;2022-12-18T11:36:16;1.90;60.00
10171;DHT22;5127;50.922;6.988;2022-12-18T11:38:44;1.90;59.90
10171;DHT22;5127;50.922;6.988;2022-12-18T11:41:21;1.90;59.60
10171;DHT22;5127;50.922;6.988;2022-12-18T11:44:11;2.00;59.60
10171;DHT22;5127;50.922;6.988;2022-12-18T11:46:46;2.00;60.10
10171;DHT22;5127;50.922;6.988;2022-12-18T11:49:20;2.00;59.90
10171;DHT22;5127;50.922;6.988;2022-12-18T11:51:53;2.00;60.20
10171;DHT22;5127;50.922;6.988;2022-12-18T11:54:22;2.00;59.60
10171;DHT22;5127;50.922;6.988;2022-12-18T11:56:53;2.00;59.80
10171;DHT22;5127;50.922;6.988;2022-12-18T11:59:29;2.10;59.60
10171;DHT22;5127;50.922;6.988;2022-12-18T12:02:09;2.10;59.80
10171;DHT22;5127;50.922;6.988;2022-12-18T12:04:55;2.10;59.60
10171;DHT22;5127;50.922;6.988;2022-12-18T12:07:34;2.10;59.00
10171;DHT22;5127;50.922;6.988;2022-12-18T12:10:11;2.10;59.20
10171;DHT22;5127;50.922;6.988;2022-12-18T12:12:55;2.10;59.30
10171;DHT22;5127;50.922;6.988;2022-12-18T12:15:34;2.10;58.60
10171;DHT22;5127;50.922;6.988;2022-12-18T12:18:16;2.10;59.30
10171;DHT22;5127;50.922;6.988;2022-12-18T12:20:49;2.10;59.50
10171;DHT22;5127;50.922;6.988;2022-12-18T12:23:26;2.10;59.30
10171;DHT22;5127;50.922;6.988;2022-12-18T12:26:01;2.10;59.70
10171;DHT22;5127;50.922;6.988;2022-12-18T12:28:49;2.10;59.00
10171;DHT22;5127;50.922;6.988;2022-12-18T12:31:26;2.20;58.80
10171;DHT22;5127;50.922;6.988;2022-12-18T12:34:04;2.20;59.40
10171;DHT22;5127;50.922;6.988;2022-12-18T12:36:44;2.10;59.10
10171;DHT22;5127;50.922;6.988;2022-12-18T12:39:18;2.20;59.30
10171;DHT22;5127;50.922;6.988;2022-12-18T12:41:46;2.20;58.90
10171;DHT22;5127;50.922;6.988;2022-12-18T12:44:38;2.20;58.80
10171;DHT22;5127;50.922;6.988;2022-12-18T12:47:13;2.20;59.00
10171;DHT22;5127;50.922;6.988;2022-12-18T12:49:41;2.20;58.90
10171;DHT22;5127;50.922;6.988;2022-12-18T12:52:17;2.20;59.30
10171;DHT22;5127;50.922;6.988;2022-12-18T12:54:47;2.20;59.00
10171;DHT22;5127;50.922;6.988;2022-12-18T12:57:19;2.20;59.30
10171;DHT22;5127;50.922;6.988;2022-12-18T12:59:57;2.20;58.60
10171;DHT22;5127;50.922;6.988;2022-12-18T13:02:32;2.20;58.80
10171;DHT22;5127;50.922;6.988;2022-12-18T13:05:06;2.20;59.40
10171;DHT22;5127;50.922;6.988;2022-12-18T13:07:40;2.20;59.20
10171;DHT22;5127;50.922;6.988;2022-12-18T13:10:22;2.20;59.30
10171;DHT22;5127;50.922;6.988;2022-12-18T13:12:55;2.30;59.20
10171;DHT22;5127;50.922;6.988;2022-12-18T13:15:35;2.30;59.20
10171;DHT22;5127;50.922;6.988;2022-12-18T13:18:10;2.30;60.10
10171;DHT22;5127;50.922;6.988;2022-12-18T13:20:40;2.30;59.40
10171;DHT22;5127;50.922;6.988;2022-12-18T13:23:31;2.30;59.60
10171;DHT22;5127;50.922;6.988;2022-12-18T13:25:59;2.30;58.50
10171;DHT22;5127;50.922;6.988;2022-12-18T13:28:51;2.30;59.40
10171;DHT22;5127;50.922;6.988;2022-12-18T13:34:37;2.30;58.30
10171;DHT22;5127;50.922;6.988;2022-12-18T13:37:42;2.30;58.70
10171;DHT22;5127;50.922;6.988;2022-12-18T13:43:27;2.30;58.30
10171;DHT22;5127;50.922;6.988;2022-12-18T13:46:04;2.30;58.40
10171;DHT22;5127;50.922;6.988;2022-12-18T13:48:33;2.30;58.70
10171;DHT22;5127;50.922;6.988;2022-12-18T13:51:06;2.30;58.80
10171;DHT22;5127;50.922;6.988;2022-12-18T13:53:38;2.30;58.80
10171;DHT22;5127;50.922;6.988;2022-12-18T13:56:06;2.30;58.80
10171;DHT22;5127;50.922;6.988;2022-12-18T13:58:33;2.30;59.20
10171;DHT22;5127;50.922;6.988;2022-12-18T14:01:00;2.30;59.10
10171;DHT22;5127;50.922;6.988;2022-12-18T14:03:30;2.30;59.30
10171;DHT22;5127;50.922;6.988;2022-12-18T14:06:03;2.30;59.20
10171;DHT22;5127;50.922;6.988;2022-12-18T14:08:38;2.30;59.10
10171;DHT22;5127;50.922;6.988;2022-12-18T14:11:06;2.30;59.00
10171;DHT22;5127;50.922;6.988;2022-12-18T14:13:37;2.30;59.30
10171;DHT22;5127;50.922;6.988;2022-12-18T14:16:06;2.30;59.00
10171;DHT22;5127;50.922;6.988;2022-12-18T14:18:42;2.30;58.90
10171;DHT22;5127;50.922;6.988;2022-12-18T14:21:20;2.30;58.60
10171;DHT22;5127;50.922;6.988;2022-12-18T14:23:48;2.20;58.80
10171;DHT22;5127;50.922;6.988;2022-12-18T14:26:24;2.20;59.10
10171;DHT22;5127;50.922;6.988;2022-12-18T14:28:54;2.20;58.60
10171;DHT22;5127;50.922;6.988;2022-12-18T14:31:24;2.20;58.90
10171;DHT22;5127;50.922;6.988;2022-12-18T14:33:52;2.10;58.60
10171;DHT22;5127;50.922;6.988;2022-12-18T14:36:22;2.10;58.80
10171;DHT22;5127;50.922;6.988;2022-12-18T14:38:51;2.10;58.60
10171;DHT22;5127;50.922;6.988;2022-12-18T14:41:20;2.00;58.80
10171;DHT22;5127;50.922;6.988;2022-12-18T14:43:50;2.00;58.90
10171;DHT22;5127;50.922;6.988;2022-12-18T14:46:33;2.00;58.80
10171;DHT22;5127;50.922;6.988;2022-12-18T14:49:03;1.90;58.10
10171;DHT22;5127;50.922;6.988;2022-12-18T14:51:33;1.90;58.90
10171;DHT22;5127;50.922;6.988;2022-12-18T14:54:03;1.90;58.60
10171;DHT22;5127;50.922;6.988;2022-12-18T14:56:35;1.90;58.90
10171;DHT22;5127;50.922;6.988;2022-12-18T14:59:04;1.80;58.60
10171;DHT22;5127;50.922;6.988;2022-12-18T15:01:35;1.80;58.80
10171;DHT22;5127;50.922;6.988;2022-12-18T15:04:04;1.80;59.00
10171;DHT22;5127;50.922;6.988;2022-12-18T15:06:35;1.80;59.00
10171;DHT22;5127;50.922;6.988;2022-12-18T15:09:05;1.80;58.60
10171;DHT22;5127;50.922;6.988;2022-12-18T15:11:44;1.70;58.60
10171;DHT22;5127;50.922;6.988;2022-12-18T15:14:31;1.70;58.40
10171;DHT22;5127;50.922;6.988;2022-12-18T15:17:02;1.70;58.50
10171;DHT22;5127;50.922;6.988;2022-12-18T15:19:35;1.70;58.50
10171;DHT22;5127;50.922;6.988;2022-12-18T15:22:16;1.60;58.80
10171;DHT22;5127;50.922;6.988;2022-12-18T15:24:45;1.60;58.80
10171;DHT22;5127;50.922;6.988;2022-12-18T15:27:21;1.60;59.00
10171;DHT22;5127;50.922;6.988;2022-12-18T15:30:00;1.60;58.90
10171;DHT22;5127;50.922;6.988;2022-12-18T15:32:27;1.60;58.70
10171;DHT22;5127;50.922;6.988;2022-12-18T15:35:03;1.60;59.10
10171;DHT22;5127;50.922;6.988;2022-12-18T15:37:32;1.60;59.00
10171;DHT22;5127;50.922;6.988;2022-12-18T15:39:59;1.60;59.30
10171;DHT22;5127;50.922;6.988;2022-12-18T15:42:28;1.60;59.20
10171;DHT22;5127;50.922;6.988;2022-12-18T15:45:13;1.50;58.80
10171;DHT22;5127;50.922;6.988;2022-12-18T15:47:41;1.70;59.00
10171;DHT22;5127;50.922;6.988;2022-12-18T15:50:09;1.50;59.00
10171;DHT22;5127;50.922;6.988;2022-12-18T15:52:40;1.50;58.80
10171;DHT22;5127;50.922;6.988;2022-12-18T15:55:10;1.50;58.80
10171;DHT22;5127;50.922;6.988;2022-12-18T15:57:56;1.50;58.80
10171;DHT22;5127;50.922;6.988;2022-12-18T16:00:23;1.50;59.30
10171;DHT22;5127;50.922;6.988;2022-12-18T16:02:51;1.40;59.10
10171;DHT22;5127;50.922;6.988;2022-12-18T16:05:20;1.50;59.30
10171;DHT22;5127;50.922;6.988;2022-12-18T16:07:49;1.50;59.20
10171;DHT22;5127;50.922;6.988;2022-12-18T16:10:16;1.40;59.00
10171;DHT22;5127;50.922;6.988;2022-12-18T16:12:44;1.40;59.40
10171;DHT22;5127;50.922;6.988;2022-12-18T16:15:13;1.40;59.40
10171;DHT22;5127;50.922;6.988;2022-12-18T16:17:42;1.40;59.50
10171;DHT22;5127;50.922;6.988;2022-12-18T16:20:12;1.40;59.30
10171;DHT22;5127;50.922;6.988;2022-12-18T16:22:41;1.40;59.20
10171;DHT22;5127;50.922;6.988;2022-12-18T16:25:17;1.40;59.40